Time;durP1;ratioP1;P1;durP2;ratioP2;P2;SDS_P1;SDS_P2;PMS_P1;PMS_P2;Temp;Humidity;BMP_temperature;BMP_pressure;BME280_temperature;BME280_humidity;BME280_pressure;Samples;Min_cycle;Max_cycle;Signal;HPM_P1;HPM_P2
2021/12/27 00:01:24;;;;;;;23.77;10.88;;;;;;;2.59;100.00;97005.66;5078601;28;20931;-57
2021/12/27 00:03:51;;;;;;;21.23;10.25;;;;;;;2.71;100.00;96999.34;5084275;28;20039;-57
2021/12/27 00:06:17;;;;;;;21.63;10.63;;;;;;;2.82;100.00;96999.91;5080144;28;20032;-56
2021/12/27 00:08:44;;;;;;;22.38;10.23;;;;;;;2.77;100.00;97004.31;5079429;28;20753;-57
2021/12/27 00:11:11;;;;;;;23.80;10.82;;;;;;;2.65;100.00;97004.66;5084010;28;20827;-57
2021/12/27 00:13:37;;;;;;;25.42;11.85;;;;;;;2.73;100.00;97001.88;5081062;28;20034;-57
2021/12/27 00:16:03;;;;;;;24.35;10.75;;;;;;;2.87;100.00;97002.38;5080990;28;20032;-56
2021/12/27 00:18:28;;;;;;;21.48;10.70;;;;;;;2.99;100.00;97003.75;5076927;28;20108;-56
2021/12/27 00:20:55;;;;;;;23.42;11.10;;;;;;;2.65;100.00;97004.66;5078577;28;20123;-57
2021/12/27 00:23:20;;;;;;;28.38;12.10;;;;;;;2.86;100.00;96987.78;5077529;28;20027;-56
2021/12/27 00:25:46;;;;;;;26.85;11.48;;;;;;;2.83;100.00;96988.72;5083736;28;20041;-56
2021/12/27 00:28:11;;;;;;;25.08;11.85;;;;;;;2.74;100.00;96994.13;5081638;28;20043;-56
2021/12/27 00:30:38;;;;;;;23.90;11.52;;;;;;;2.84;100.00;96992.13;5079939;28;20445;-56
2021/12/27 00:33:04;;;;;;;23.95;11.75;;;;;;;2.81;100.00;96990.50;5074971;28;20026;-58
2021/12/27 00:35:32;;;;;;;21.23;11.18;;;;;;;2.52;100.00;96993.81;5077475;28;20032;-56
2021/12/27 00:37:58;;;;;;;22.30;11.07;;;;;;;2.61;100.00;96990.13;5078335;28;20078;-59
2021/12/27 00:40:23;;;;;;;26.52;11.85;;;;;;;2.60;100.00;96988.47;5075601;28;20097;-59
2021/12/27 00:42:50;;;;;;;26.52;12.18;;;;;;;2.84;100.00;96987.81;5076569;28;20028;-57
2021/12/27 00:45:16;;;;;;;24.48;11.82;;;;;;;2.75;100.00;96982.91;5084935;28;20156;-57
2021/12/27 00:47:42;;;;;;;26.08;12.00;;;;;;;2.32;100.00;96986.56;5081211;28;20023;-56
2021/12/27 00:50:08;;;;;;;29.15;12.70;;;;;;;2.59;100.00;96984.19;5075654;28;20075;-57
2021/12/27 00:52:35;;;;;;;26.05;12.45;;;;;;;2.47;100.00;96983.63;5076543;28;20116;-56
2021/12/27 00:55:03;;;;;;;28.13;12.80;;;;;;;2.68;100.00;96974.53;5078253;28;20024;-57
2021/12/27 00:57:28;;;;;;;28.83;12.55;;;;;;;2.46;100.00;96976.78;5079317;28;20077;-56
2021/12/27 00:59:54;;;;;;;27.88;12.68;;;;;;;2.43;100.00;96979.44;5075182;28;20766;-56
2021/12/27 01:02:19;;;;;;;25.50;12.45;;;;;;;2.25;100.00;96974.75;5075556;28;20531;-56
2021/12/27 01:04:45;;;;;;;29.30;12.70;;;;;;;2.47;100.00;96980.19;5082430;28;20477;-57
2021/12/27 01:07:10;;;;;;;25.95;12.65;;;;;;;2.55;100.00;96978.28;5077269;28;20520;-56
2021/12/27 01:09:57;;;;;;;24.83;11.85;;;;;;;2.68;100.00;96981.38;5080694;28;20689;-56
2021/12/27 01:12:47;;;;;;;25.95;12.20;;;;;;;2.47;100.00;96978.47;5076266;28;20048;-56
2021/12/27 01:17:43;;;;;;;29.58;13.18;;;;;;;2.74;100.00;96976.09;5080961;28;20020;-56
2021/12/27 01:20:11;;;;;;;28.63;13.10;;;;;;;2.67;100.00;96977.13;5078445;28;20078;-55
2021/12/27 01:22:36;;;;;;;27.40;12.90;;;;;;;2.81;100.00;96974.19;5073592;28;20020;-55
2021/12/27 01:25:05;;;;;;;26.77;13.70;;;;;;;2.80;100.00;96980.22;5077673;28;20023;-55
2021/12/27 01:27:31;;;;;;;27.85;12.98;;;;;;;2.79;100.00;96970.78;5076221;28;20024;-55
2021/12/27 01:29:56;;;;;;;30.90;13.40;;;;;;;2.48;100.00;96977.59;5080531;28;20035;-56
2021/12/27 01:32:24;;;;;;;31.73;14.20;;;;;;;2.08;100.00;96976.00;5077388;28;20668;-55
2021/12/27 01:34:50;;;;;;;34.58;15.63;;;;;;;2.19;100.00;96974.88;5061427;28;20091;-55
2021/12/27 01:37:18;;;;;;;30.75;13.90;;;;;;;2.23;100.00;96966.22;5081522;28;20539;-55
2021/12/27 01:39:43;;;;;;;41.85;18.13;;;;;;;2.29;100.00;96966.06;5084395;28;20038;-55
2021/12/27 01:42:09;;;;;;;36.22;14.68;;;;;;;2.05;100.00;96963.19;5077369;28;20028;-56
2021/12/27 01:44:34;;;;;;;36.45;15.30;;;;;;;1.87;100.00;96961.06;5083062;28;20371;-56
2021/12/27 01:47:00;;;;;;;40.05;17.20;;;;;;;2.24;100.00;96958.47;5078901;28;20114;-55
2021/12/27 01:49:25;;;;;;;35.25;15.63;;;;;;;2.01;100.00;96971.88;5075840;28;20025;-55
2021/12/27 01:51:51;;;;;;;39.83;16.70;;;;;;;2.21;100.00;96963.69;5071821;28;20037;-55
2021/12/27 01:54:16;;;;;;;37.28;15.65;;;;;;;2.14;100.00;96967.28;5083587;28;20024;-55
2021/12/27 01:56:42;;;;;;;35.22;15.23;;;;;;;2.61;100.00;96956.66;5077451;28;20189;-55
2021/12/27 01:59:07;;;;;;;35.35;15.65;;;;;;;2.58;100.00;96961.91;5081541;28;20066;-56
2021/12/27 02:01:32;;;;;;;38.80;15.35;;;;;;;2.34;100.00;96960.81;5076926;28;20508;-55
2021/12/27 02:03:58;;;;;;;39.33;15.63;;;;;;;2.30;100.00;96962.63;5080028;28;20016;-55
2021/12/27 02:06:25;;;;;;;34.33;15.38;;;;;;;2.46;100.00;96953.63;5078448;28;20108;-59
2021/12/27 02:08:51;;;;;;;37.97;15.45;;;;;;;2.41;100.00;96955.47;5081068;28;20023;-55
2021/12/27 02:11:18;;;;;;;36.25;14.93;;;;;;;2.45;100.00;96957.06;5078079;28;20028;-56
2021/12/27 02:13:45;;;;;;;39.92;15.88;;;;;;;2.62;100.00;96963.53;5075515;28;20047;-55
2021/12/27 02:16:13;;;;;;;31.20;14.57;;;;;;;2.48;100.00;96962.16;5073619;28;20087;-56
2021/12/27 02:18:39;;;;;;;32.78;14.38;;;;;;;2.49;100.00;96961.25;5076203;28;20023;-56
2021/12/27 02:21:04;;;;;;;33.33;14.90;;;;;;;2.49;100.00;96947.53;5080214;28;20097;-57
2021/12/27 02:23:30;;;;;;;34.25;15.38;;;;;;;2.79;100.00;96950.19;5078960;28;20381;-56
2021/12/27 02:25:55;;;;;;;30.30;14.07;;;;;;;2.69;100.00;96954.75;5073680;28;20028;-56
2021/12/27 02:28:22;;;;;;;38.83;15.60;;;;;;;2.74;100.00;96952.91;5084399;28;20115;-55
2021/12/27 02:30:49;;;;;;;39.40;15.40;;;;;;;2.71;100.00;96952.97;5077477;28;20040;-58
2021/12/27 02:33:15;;;;;;;34.92;15.00;;;;;;;2.45;100.00;96946.78;5082849;28;20964;-56
2021/12/27 02:35:47;;;;;;;42.00;15.52;;;;;;;2.63;100.00;96950.63;5078443;28;20032;-56
2021/12/27 02:38:19;;;;;;;32.15;14.90;;;;;;;2.28;100.00;96954.94;5082458;28;20024;-56
2021/12/27 02:40:45;;;;;;;33.03;15.10;;;;;;;2.59;100.00;96955.88;5075450;28;20120;-55
2021/12/27 02:43:14;;;;;;;37.08;15.75;;;;;;;2.48;100.00;96951.84;5081835;28;20077;-57
2021/12/27 02:45:49;;;;;;;37.03;14.73;;;;;;;2.26;100.00;96941.25;5076462;28;20559;-56
2021/12/27 02:48:17;;;;;;;37.95;15.43;;;;;;;2.27;100.00;96942.09;5081946;28;20054;-56
2021/12/27 02:50:44;;;;;;;47.08;15.75;;;;;;;2.79;100.00;96934.75;5080923;28;20036;-56
2021/12/27 02:53:10;;;;;;;37.03;15.60;;;;;;;2.48;100.00;96936.41;5079404;28;20161;-57
2021/12/27 02:55:36;;;;;;;32.88;14.60;;;;;;;2.82;100.00;96940.66;5078749;28;20116;-57
2021/12/27 02:58:03;;;;;;;36.58;15.00;;;;;;;2.55;100.00;96933.66;5078307;28;20016;-58
2021/12/27 03:00:32;;;;;;;41.30;16.13;;;;;;;2.63;100.00;96934.34;5080759;28;20114;-57
2021/12/27 03:02:58;;;;;;;32.90;14.40;;;;;;;2.44;100.00;96939.09;5096650;27;20094;-57
2021/12/27 03:05:26;;;;;;;38.88;15.15;;;;;;;2.73;100.00;96933.19;5081304;28;20040;-57
2021/12/27 03:07:52;;;;;;;36.60;15.88;;;;;;;2.73;100.00;96934.94;5081821;28;20091;-56
2021/12/27 03:10:22;;;;;;;34.90;15.60;;;;;;;2.79;100.00;96934.75;5086067;28;20023;-58
2021/12/27 03:12:48;;;;;;;31.52;14.73;;;;;;;2.65;100.00;96932.56;5095631;27;20146;-58
2021/12/27 03:15:16;;;;;;;38.83;15.07;;;;;;;2.51;100.00;96933.75;5082899;28;20031;-58
2021/12/27 03:17:44;;;;;;;35.70;14.70;;;;;;;2.12;100.00;96933.03;5081393;28;20926;-56
2021/12/27 03:20:11;;;;;;;38.72;15.63;;;;;;;2.44;100.00;96932.22;5079553;28;20028;-57
2021/12/27 03:22:37;;;;;;;34.08;15.30;;;;;;;2.48;100.00;96935.56;5078258;28;20027;-58
2021/12/27 03:25:05;;;;;;;43.60;16.08;;;;;;;2.60;100.00;96934.41;5078757;28;20038;-57
2021/12/27 03:27:31;;;;;;;40.20;15.88;;;;;;;2.62;100.00;96918.00;5084687;28;20107;-60
2021/12/27 03:29:56;;;;;;;37.85;15.45;;;;;;;2.34;100.00;96923.06;5080149;28;20099;-57
2021/12/27 03:32:22;;;;;;;39.72;16.48;;;;;;;2.71;100.00;96919.50;5080572;28;20406;-57
2021/12/27 03:35:07;;;;;;;48.97;18.02;;;;;;;2.59;100.00;96915.56;5082386;28;20481;-58
2021/12/27 03:37:33;;;;;;;43.55;16.88;;;;;;;2.80;100.00;96915.84;5076825;28;20127;-57
2021/12/27 03:39:58;;;;;;;39.47;16.73;;;;;;;2.88;100.00;96909.56;5079477;28;20110;-56
2021/12/27 03:42:24;;;;;;;38.58;15.93;;;;;;;3.00;100.00;96917.88;5084244;28;20119;-58
2021/12/27 03:44:49;;;;;;;35.92;15.80;;;;;;;2.86;100.00;96915.66;5079947;28;20024;-56
2021/12/27 03:47:14;;;;;;;34.47;15.50;;;;;;;2.81;100.00;96913.25;5084279;28;20064;-56
2021/12/27 03:49:40;;;;;;;36.83;15.60;;;;;;;2.82;100.00;96917.47;5083706;28;20074;-56
2021/12/27 03:52:06;;;;;;;31.45;14.85;;;;;;;2.69;100.00;96918.72;5081402;28;20065;-56
2021/12/27 03:54:31;;;;;;;36.95;15.18;;;;;;;2.84;100.00;96913.13;5077557;28;20561;-56
2021/12/27 03:56:57;;;;;;;31.85;14.90;;;;;;;2.93;100.00;96918.94;5077321;28;20454;-57
2021/12/27 04:00:16;;;;;;;30.77;14.32;;;;;;;2.92;100.00;96917.22;5073960;28;20548;-58
2021/12/27 04:02:08;;;;;;;32.75;15.27;;;;;;;2.93;100.00;96916.34;5063609;28;20048;-56
2021/12/27 04:04:33;;;;;;;34.70;14.05;;;;;;;2.67;100.00;96912.75;5080673;28;20257;-57
2021/12/27 04:06:59;;;;;;;37.22;16.02;;;;;;;2.99;100.00;96909.28;5078905;28;20916;-56
2021/12/27 04:09:25;;;;;;;37.35;15.20;;;;;;;3.02;100.00;96916.94;5076964;28;20032;-55
2021/12/27 04:11:50;;;;;;;35.67;15.23;;;;;;;2.98;100.00;96914.47;5074391;28;20447;-55
2021/12/27 04:14:16;;;;;;;33.20;14.82;;;;;;;2.99;100.00;96917.00;5076822;28;20032;-57
2021/12/27 04:16:41;;;;;;;32.45;14.02;;;;;;;3.11;100.00;96915.84;5080319;28;20578;-56
2021/12/27 04:19:06;;;;;;;34.22;14.95;;;;;;;2.48;100.00;96920.97;5077800;28;20066;-55
2021/12/27 04:21:32;;;;;;;31.88;14.27;;;;;;;2.98;100.00;96914.47;5077588;28;20111;-56
2021/12/27 04:23:57;;;;;;;31.65;13.77;;;;;;;2.77;100.00;96918.50;5079144;28;20489;-56
2021/12/27 04:26:23;;;;;;;32.63;14.25;;;;;;;2.96;100.00;96911.97;5075495;28;20084;-55
2021/12/27 04:28:51;;;;;;;32.47;13.95;;;;;;;2.75;100.00;96913.38;5083255;28;20118;-56
2021/12/27 04:31:17;;;;;;;30.10;13.73;;;;;;;2.82;100.00;96909.75;5077318;28;20063;-55
2021/12/27 04:33:43;;;;;;;29.70;14.15;;;;;;;2.87;100.00;96913.06;5079954;28;20047;-56
2021/12/27 04:36:08;;;;;;;34.22;15.10;;;;;;;2.97;100.00;96907.66;5075837;28;20040;-55
2021/12/27 04:38:35;;;;;;;40.95;16.08;;;;;;;2.86;100.00;96911.34;5077195;28;20032;-56
2021/12/27 04:41:01;;;;;;;46.83;15.95;;;;;;;2.84;100.00;96907.97;5077530;28;20089;-55
2021/12/27 04:43:26;;;;;;;44.08;16.58;;;;;;;2.86;100.00;96911.34;5081320;28;20080;-56
2021/12/27 04:45:53;;;;;;;48.15;16.67;;;;;;;2.93;100.00;96912.03;5075893;28;20032;-56
2021/12/27 04:48:21;;;;;;;34.47;15.43;;;;;;;3.02;100.00;96918.69;5073301;28;20110;-55
2021/12/27 04:50:47;;;;;;;33.88;15.77;;;;;;;3.12;100.00;96914.09;5080318;28;20127;-55
2021/12/27 04:53:12;;;;;;;34.60;14.80;;;;;;;4.07;100.00;96923.25;5076137;28;20661;-55
2021/12/27 04:55:38;;;;;;;38.22;14.98;;;;;;;3.91;100.00;96916.00;5077292;28;20036;-56
2021/12/27 04:58:05;;;;;;;35.53;14.68;;;;;;;4.17;100.00;96919.47;5074948;28;20036;-54
2021/12/27 05:00:31;;;;;;;38.92;15.32;;;;;;;4.77;100.00;96907.94;5075486;28;20069;-56
2021/12/27 05:02:58;;;;;;;36.78;14.35;;;;;;;5.96;100.00;96901.81;5078571;28;20028;-55
2021/12/27 05:05:24;;;;;;;32.25;14.57;;;;;;;6.61;100.00;96906.06;5080581;28;20031;-56
2021/12/27 05:07:50;;;;;;;34.03;14.35;;;;;;;8.15;100.00;96902.50;5074651;28;20261;-55
2021/12/27 05:10:18;;;;;;;35.65;14.85;;;;;;;8.33;100.00;96898.16;5079145;28;20030;-59
2021/12/27 05:12:44;;;;;;;43.78;16.15;;;;;;;8.64;100.00;96900.09;5082077;28;20035;-56
2021/12/27 05:15:09;;;;;;;38.88;16.20;;;;;;;9.22;100.00;96903.19;5078588;28;20632;-56
2021/12/27 05:17:35;;;;;;;35.92;15.27;;;;;;;11.66;93.36;96895.22;5076168;28;20042;-56
2021/12/27 05:20:04;;;;;;;37.28;15.35;;;;;;;12.33;88.55;96892.69;5078488;28;20055;-56
2021/12/27 05:22:31;;;;;;;42.05;16.33;;;;;;;13.64;80.99;96894.28;5076650;28;20059;-55
2021/12/27 05:24:57;;;;;;;41.28;15.27;;;;;;;12.86;81.82;96897.88;5075141;28;20598;-56
2021/12/27 05:27:22;;;;;;;37.55;15.20;;;;;;;15.52;65.72;96890.81;5081113;28;20090;-56
2021/12/27 05:29:47;;;;;;;31.70;13.60;;;;;;;11.50;66.69;96898.78;5080489;28;20067;-56
2021/12/27 05:32:13;;;;;;;32.83;14.50;;;;;;;6.04;100.00;96900.66;5075108;28;20135;-58
2021/12/27 05:34:38;;;;;;;33.55;15.10;;;;;;;5.76;100.00;96897.38;5075990;28;20107;-56
2021/12/27 05:37:04;;;;;;;33.45;15.35;;;;;;;5.69;100.00;96900.28;5078958;28;20038;-55
2021/12/27 05:39:30;;;;;;;34.38;14.57;;;;;;;5.76;100.00;96886.19;5079424;28;20024;-57
2021/12/27 05:41:56;;;;;;;44.42;16.52;;;;;;;5.40;100.00;96892.75;5075602;28;20927;-57
2021/12/27 05:44:21;;;;;;;42.08;16.17;;;;;;;5.33;100.00;96882.66;5078210;28;20035;-57
2021/12/27 05:46:47;;;;;;;41.88;16.98;;;;;;;5.40;100.00;96884.13;5076840;28;20036;-57
2021/12/27 05:49:14;;;;;;;43.00;15.68;;;;;;;5.55;100.00;96882.69;5078341;28;20761;-56
2021/12/27 05:51:41;;;;;;;39.63;16.25;;;;;;;5.46;100.00;96888.22;5080653;28;20035;-56
2021/12/27 05:54:07;;;;;;;34.00;14.52;;;;;;;5.48;100.00;96889.88;5080904;28;20062;-56
2021/12/27 05:56:32;;;;;;;33.42;14.73;;;;;;;5.34;100.00;96894.72;5075547;28;20028;-57
2021/12/27 05:58:58;;;;;;;37.58;15.45;;;;;;;5.05;100.00;96888.88;5080745;28;20059;-56
2021/12/27 06:01:23;;;;;;;35.80;15.13;;;;;;;4.85;100.00;96886.19;5078324;28;20040;-57
2021/12/27 06:03:48;;;;;;;43.90;16.40;;;;;;;4.87;100.00;96881.78;5081953;28;20521;-56
2021/12/27 06:06:15;;;;;;;36.97;15.27;;;;;;;4.97;100.00;96880.56;5080361;28;20600;-58
2021/12/27 06:08:40;;;;;;;42.38;15.70;;;;;;;5.04;100.00;96876.88;5080941;28;20669;-56
2021/12/27 06:11:06;;;;;;;35.78;15.00;;;;;;;4.78;100.00;96868.31;5082266;28;20028;-56
2021/12/27 06:13:31;;;;;;;35.22;14.40;;;;;;;5.00;100.00;96875.31;5080989;28;20466;-57
2021/12/27 06:15:56;;;;;;;33.00;13.80;;;;;;;4.43;100.00;96880.72;5083617;28;20047;-56
2021/12/27 06:18:24;;;;;;;28.75;13.43;;;;;;;4.63;100.00;96887.78;5080049;28;20678;-56
2021/12/27 06:20:49;;;;;;;36.30;14.52;;;;;;;4.47;100.00;96885.78;5082151;28;20768;-56
2021/12/27 06:23:14;;;;;;;33.65;14.73;;;;;;;5.09;100.00;96895.63;5083489;28;20119;-56
2021/12/27 06:25:40;;;;;;;35.92;15.23;;;;;;;5.00;100.00;96886.47;5084192;28;20040;-57
2021/12/27 06:28:05;;;;;;;33.05;14.18;;;;;;;5.11;100.00;96877.47;5090262;28;20100;-55
2021/12/27 06:30:30;;;;;;;28.50;13.80;;;;;;;4.93;100.00;96886.75;5076052;28;20484;-56
2021/12/27 06:32:56;;;;;;;27.52;13.60;;;;;;;4.96;100.00;96894.38;5083507;28;20028;-56
2021/12/27 06:35:21;;;;;;;38.58;14.60;;;;;;;5.05;100.00;96891.47;5080223;27;20052;-56
2021/12/27 06:37:47;;;;;;;31.10;13.75;;;;;;;4.78;100.00;96891.56;5082458;28;20016;-55
2021/12/27 06:40:14;;;;;;;31.50;13.70;;;;;;;4.98;100.00;96895.16;5084214;28;20019;-57
2021/12/27 06:42:39;;;;;;;34.03;13.88;;;;;;;5.06;100.00;96895.75;5079812;28;20028;-56
2021/12/27 06:45:06;;;;;;;38.67;15.77;;;;;;;5.01;100.00;96897.63;5078766;28;20043;-59
2021/12/27 06:47:31;;;;;;;34.75;16.67;;;;;;;4.62;100.00;96890.44;5080478;28;20063;-56
2021/12/27 06:49:57;;;;;;;34.60;15.70;;;;;;;4.60;100.00;96887.06;5078705;28;20108;-59
2021/12/27 06:52:23;;;;;;;33.50;14.65;;;;;;;4.58;100.00;96896.59;5080081;28;20040;-56
2021/12/27 06:54:48;;;;;;;33.47;14.52;;;;;;;4.75;100.00;96902.00;5079420;28;20054;-55
2021/12/27 06:57:14;;;;;;;30.35;13.52;;;;;;;4.49;100.00;96894.34;5080274;28;20456;-56
2021/12/27 06:59:39;;;;;;;37.38;14.88;;;;;;;4.58;100.00;96896.59;5079763;28;20086;-56
2021/12/27 07:02:05;;;;;;;35.55;15.45;;;;;;;4.55;100.00;96894.13;5077131;28;20504;-56
2021/12/27 07:04:31;;;;;;;32.72;15.05;;;;;;;4.51;100.00;96893.38;5079206;28;20024;-57
2021/12/27 07:06:57;;;;;;;28.88;13.57;;;;;;;4.50;100.00;96896.84;5069298;28;20036;-55
2021/12/27 07:09:22;;;;;;;31.98;14.80;;;;;;;4.64;100.00;96893.78;5081137;28;20032;-57
2021/12/27 07:11:48;;;;;;;38.97;16.60;;;;;;;4.61;100.00;96905.09;5080531;28;20033;-57
2021/12/27 07:14:13;;;;;;;37.08;16.23;;;;;;;4.33;100.00;96894.84;5079734;28;20081;-56
2021/12/27 07:16:38;;;;;;;40.67;16.98;;;;;;;4.05;100.00;96895.75;5086360;28;20039;-57
2021/12/27 07:19:04;;;;;;;39.30;17.38;;;;;;;3.92;100.00;96881.56;5082123;28;20408;-56
2021/12/27 07:21:29;;;;;;;36.70;16.88;;;;;;;4.04;100.00;96883.75;5084071;28;20177;-57
2021/12/27 07:23:54;;;;;;;34.40;14.73;;;;;;;4.07;100.00;96887.97;5084523;28;20112;-56
2021/12/27 07:26:20;;;;;;;36.78;16.55;;;;;;;4.35;100.00;96887.88;5079717;28;20079;-55
2021/12/27 07:28:45;;;;;;;36.47;16.10;;;;;;;4.56;100.00;96881.16;5078489;28;20021;-57
2021/12/27 07:31:10;;;;;;;38.50;16.15;;;;;;;4.63;100.00;96881.75;5078405;28;20104;-57
2021/12/27 07:33:37;;;;;;;37.78;15.77;;;;;;;4.66;100.00;96880.84;5083066;28;20076;-56
2021/12/27 07:36:07;;;;;;;30.17;14.38;;;;;;;4.11;100.00;96892.13;5079128;28;20085;-56
2021/12/27 07:38:34;;;;;;;32.22;14.63;;;;;;;4.32;100.00;96888.00;5081266;28;20020;-56
2021/12/27 07:40:59;;;;;;;31.40;14.10;;;;;;;4.76;100.00;96890.78;5082538;28;20533;-57
2021/12/27 07:43:25;;;;;;;31.77;14.98;;;;;;;4.62;100.00;96885.25;5083913;27;20084;-57
2021/12/27 07:45:50;;;;;;;31.33;15.10;;;;;;;4.76;100.00;96883.03;5078224;28;20225;-56
2021/12/27 07:48:15;;;;;;;35.13;16.15;;;;;;;4.83;100.00;96889.69;5081203;28;20142;-56
2021/12/27 07:50:41;;;;;;;33.65;14.48;;;;;;;4.64;100.00;96884.28;5081020;28;20059;-56
2021/12/27 07:53:06;;;;;;;28.77;13.75;;;;;;;4.43;100.00;96880.72;5077313;28;20024;-58
2021/12/27 07:55:32;;;;;;;29.02;14.32;;;;;;;4.39;100.00;96879.16;5085140;28;20071;-57
2021/12/27 07:57:58;;;;;;;30.17;13.55;;;;;;;4.64;100.00;96878.28;5075751;28;20057;-57
2021/12/27 08:00:24;;;;;;;30.00;14.55;;;;;;;4.86;100.00;96888.72;5075612;28;20029;-56
2021/12/27 08:02:50;;;;;;;30.17;12.93;;;;;;;5.17;100.00;96885.84;5085031;28;20042;-56
2021/12/27 08:05:16;;;;;;;30.83;15.05;;;;;;;4.89;100.00;96888.59;5077369;28;20043;-56
2021/12/27 08:07:44;;;;;;;31.02;14.50;;;;;;;5.12;100.00;96880.00;5079531;28;20529;-58
2021/12/27 08:10:11;;;;;;;30.95;14.40;;;;;;;5.23;100.00;96879.59;5081178;28;20063;-57
2021/12/27 08:12:38;;;;;;;31.95;15.13;;;;;;;4.74;100.00;96881.38;5082365;28;20099;-55
2021/12/27 08:15:06;;;;;;;28.30;13.68;;;;;;;4.45;100.00;96872.94;5077837;28;20085;-56
2021/12/27 08:17:31;;;;;;;30.65;14.45;;;;;;;4.80;100.00;96869.09;5078324;28;20069;-56
2021/12/27 08:19:57;;;;;;;31.77;14.40;;;;;;;5.15;100.00;96871.31;5078478;28;20584;-61
2021/12/27 08:22:22;;;;;;;32.60;14.77;;;;;;;4.90;100.00;96869.59;5079569;28;20122;-56
2021/12/27 08:24:48;;;;;;;30.55;14.57;;;;;;;5.08;100.00;96862.94;5080577;28;20024;-56
2021/12/27 08:27:14;;;;;;;32.53;15.07;;;;;;;5.20;100.00;96872.81;5079523;28;20036;-56
2021/12/27 08:29:39;;;;;;;31.38;15.55;;;;;;;4.95;100.00;96870.28;5082186;28;20028;-56
2021/12/27 08:32:05;;;;;;;31.83;15.57;;;;;;;4.89;100.00;96861.91;5074292;28;20078;-57
2021/12/27 08:34:32;;;;;;;34.30;15.18;;;;;;;5.32;100.00;96863.75;5079592;28;20582;-56
2021/12/27 08:36:58;;;;;;;37.85;15.75;;;;;;;5.02;100.00;96865.75;5078534;28;20028;-56
2021/12/27 08:39:24;;;;;;;34.10;16.15;;;;;;;4.66;100.00;96855.84;5075639;28;20028;-55
2021/12/27 08:41:49;;;;;;;36.45;17.30;;;;;;;4.91;100.00;96880.81;5081349;28;20057;-56
2021/12/27 08:44:15;;;;;;;30.73;14.60;;;;;;;5.11;100.00;96882.63;5076065;28;20485;-56
2021/12/27 08:46:40;;;;;;;32.05;14.07;;;;;;;5.28;100.00;96874.28;5081475;28;20028;-56
2021/12/27 08:49:06;;;;;;;31.67;14.32;;;;;;;5.31;100.00;96884.47;5080963;28;20111;-55
2021/12/27 08:51:32;;;;;;;36.55;15.40;;;;;;;4.92;100.00;96877.31;5079270;28;20035;-55
2021/12/27 08:53:57;;;;;;;33.55;15.55;;;;;;;5.30;100.00;96877.63;5075956;28;20519;-57
2021/12/27 08:56:23;;;;;;;33.55;15.65;;;;;;;5.53;100.00;96875.00;5077434;28;20094;-57
2021/12/27 08:58:49;;;;;;;31.52;15.52;;;;;;;5.54;100.00;96881.84;5084744;28;20024;-58
2021/12/27 09:01:14;;;;;;;31.45;14.65;;;;;;;5.59;100.00;96885.13;5076024;28;20139;-56
2021/12/27 09:03:39;;;;;;;28.15;12.18;;;;;;;5.82;100.00;96875.59;5073815;28;20116;-57
2021/12/27 09:06:05;;;;;;;31.42;14.63;;;;;;;5.18;100.00;96877.19;5072194;28;20092;-56
2021/12/27 09:08:31;;;;;;;32.90;14.77;;;;;;;5.71;100.00;96878.59;5076522;28;20156;-58
2021/12/27 09:10:58;;;;;;;30.63;14.55;;;;;;;5.45;100.00;96877.03;5075093;28;20041;-56
2021/12/27 09:13:34;;;;;;;35.78;16.52;;;;;;;5.58;100.00;96880.84;5080942;28;20424;-55
2021/12/27 09:16:01;;;;;;;34.30;16.25;;;;;;;5.73;100.00;96875.97;5074441;28;20036;-55
2021/12/27 09:18:31;;;;;;;35.78;16.73;;;;;;;5.66;100.00;96884.88;5077015;28;20015;-55
2021/12/27 09:20:57;;;;;;;33.80;16.00;;;;;;;5.77;100.00;96874.94;5082394;28;20035;-57
2021/12/27 09:23:23;;;;;;;41.70;16.52;;;;;;;5.56;100.00;96869.69;5075090;28;20509;-56
2021/12/27 09:25:48;;;;;;;36.00;17.13;;;;;;;5.67;100.00;96864.13;5079175;28;20094;-57
2021/12/27 09:28:15;;;;;;;32.65;16.10;;;;;;;5.23;100.00;96861.50;5076827;28;20020;-56
2021/12/27 09:30:41;;;;;;;39.85;19.80;;;;;;;5.25;100.00;96871.78;5082112;28;20047;-59
2021/12/27 09:33:07;;;;;;;36.53;16.90;;;;;;;5.59;100.00;96879.94;5074862;28;20028;-57
2021/12/27 09:35:33;;;;;;;35.85;16.35;;;;;;;5.67;100.00;96868.44;5076724;28;20036;-56
2021/12/27 09:37:59;;;;;;;36.50;16.80;;;;;;;5.84;100.00;96870.38;5081511;28;20055;-56
2021/12/27 09:40:25;;;;;;;40.00;17.08;;;;;;;5.87;100.00;96873.69;5078055;28;20363;-56
2021/12/27 09:42:51;;;;;;;36.42;16.38;;;;;;;5.30;100.00;96870.72;5080183;28;20309;-57
2021/12/27 09:45:17;;;;;;;38.10;17.02;;;;;;;5.94;100.00;96869.09;5079203;28;20180;-58
2021/12/27 09:47:44;;;;;;;38.25;18.10;;;;;;;5.66;100.00;96865.03;5076159;28;20020;-56
2021/12/27 09:50:12;;;;;;;37.33;16.35;;;;;;;5.55;100.00;96857.69;5083946;28;20506;-55
2021/12/27 09:52:39;;;;;;;35.78;17.45;;;;;;;5.66;100.00;96854.69;5081223;28;20241;-58
2021/12/27 09:55:05;;;;;;;35.08;15.45;;;;;;;5.57;100.00;96849.88;5081396;28;20032;-55
2021/12/27 09:57:31;;;;;;;44.00;16.10;;;;;;;5.71;100.00;96849.31;5081520;28;20024;-57
2021/12/27 09:59:57;;;;;;;37.10;16.88;;;;;;;5.55;100.00;96849.94;5081093;28;20036;-55
2021/12/27 10:02:25;;;;;;;38.95;15.98;;;;;;;5.49;100.00;96860.50;5080033;28;20036;-59
2021/12/27 10:04:51;;;;;;;37.40;15.40;;;;;;;5.53;100.00;96843.97;5080680;28;20623;-55
2021/12/27 10:07:21;;;;;;;39.35;16.75;;;;;;;5.32;100.00;96849.97;5081755;28;20498;-59
2021/12/27 10:09:55;;;;;;;37.28;15.95;;;;;;;5.36;100.00;96851.53;5083766;28;20110;-57
2021/12/27 10:12:23;;;;;;;32.63;14.10;;;;;;;5.45;100.00;96848.59;5084315;28;20082;-56
2021/12/27 10:14:57;;;;;;;34.22;15.82;;;;;;;5.62;100.00;96847.09;5081597;28;20024;-57
2021/12/27 10:17:23;;;;;;;37.83;15.10;;;;;;;5.57;100.00;96844.69;5079859;28;20481;-57
2021/12/27 10:19:50;;;;;;;35.05;15.02;;;;;;;5.63;100.00;96856.56;5083314;28;20043;-56
2021/12/27 10:22:16;;;;;;;38.30;14.93;;;;;;;5.76;100.00;96861.16;5082151;28;20078;-55
2021/12/27 10:24:42;;;;;;;25.40;10.20;;;;;;;6.25;100.00;96858.34;5079756;28;20082;-56
2021/12/27 10:27:08;;;;;;;33.78;14.93;;;;;;;5.93;100.00;96851.88;5097813;27;20068;-57
2021/12/27 10:29:36;;;;;;;36.60;14.93;;;;;;;5.86;100.00;96853.84;5086009;28;20029;-57
2021/12/27 10:32:04;;;;;;;36.00;16.85;;;;;;;5.65;100.00;96844.41;5082854;28;20033;-55
2021/12/27 10:34:43;;;;;;;40.83;16.70;;;;;;;5.18;100.00;96859.09;5085909;28;20116;-56
2021/12/27 10:37:11;;;;;;;39.45;16.77;;;;;;;5.26;100.00;96850.22;5082135;28;20032;-56
2021/12/27 10:39:45;;;;;;;33.53;14.20;;;;;;;5.24;100.00;96847.69;5082596;28;20039;-56
2021/12/27 10:42:14;;;;;;;29.48;11.85;;;;;;;4.90;100.00;96853.28;5080502;28;20037;-57
2021/12/27 10:44:40;;;;;;;41.03;16.27;;;;;;;4.95;100.00;96849.63;5079051;28;20412;-57
2021/12/27 10:47:33;;;;;;;39.38;15.63;;;;;;;5.35;100.00;96844.69;5082760;28;20933;-58
2021/12/27 10:50:04;;;;;;;39.63;17.42;;;;;;;4.97;100.00;96839.22;5075511;28;20102;-56
2021/12/27 10:52:53;;;;;;;41.47;20.20;;;;;;;4.74;100.00;96840.91;5086579;28;20044;-56
2021/12/27 10:55:25;;;;;;;39.80;16.52;;;;;;;5.22;100.00;96840.00;5081329;28;20032;-56
2021/12/27 10:57:52;;;;;;;35.58;15.35;;;;;;;4.94;100.00;96844.50;5079213;28;20142;-57
2021/12/27 11:00:30;;;;;;;38.47;15.52;;;;;;;5.02;100.00;96847.66;5077612;28;20453;-56
2021/12/27 11:02:58;;;;;;;33.53;13.02;;;;;;;4.90;100.00;96836.00;5084132;28;20033;-58
2021/12/27 11:05:25;;;;;;;32.45;13.90;;;;;;;4.94;100.00;96829.00;5078880;28;20032;-56
2021/12/27 11:07:59;;;;;;;42.13;16.73;;;;;;;4.98;100.00;96822.81;5079437;28;20043;-57
2021/12/27 11:10:25;;;;;;;32.25;12.25;;;;;;;4.74;100.00;96817.69;5082205;28;20115;-57
2021/12/27 11:12:51;;;;;;;35.17;14.35;;;;;;;5.03;100.00;96810.56;5106167;27;20027;-58
2021/12/27 11:15:17;;;;;;;33.22;13.52;;;;;;;5.04;100.00;96814.84;5074952;28;20020;-57
2021/12/27 11:17:44;;;;;;;33.30;13.68;;;;;;;5.18;100.00;96812.56;5079815;28;20016;-55